createdAt,value
2019-01-03T00:01:55.894Z,6.42
2019-01-03T00:04:42.059Z,1.70
2019-01-03T00:07:28.269Z,4.30
2019-01-03T00:10:09.985Z,1.40
2019-01-03T00:12:45.998Z,5.45
2019-01-03T00:15:16.074Z,1.27
2019-01-03T00:18:01.562Z,6.12
2019-01-03T00:20:31.641Z,2.47
2019-01-03T00:23:17.747Z,1.70
2019-01-03T00:26:02.929Z,3.22
2019-01-03T00:28:36.010Z,1.10
2019-01-03T00:31:05.069Z,3.10
2019-01-03T00:33:35.398Z,4.37
2019-01-03T00:36:08.141Z,6.67
2019-01-03T00:38:46.932Z,1.17
2019-01-03T00:41:16.998Z,2.05
2019-01-03T00:44:02.836Z,1.85
2019-01-03T00:46:38.598Z,1.85
2019-01-03T00:49:08.678Z,1.37
2019-01-03T00:51:54.903Z,1.65
2019-01-03T00:54:40.946Z,1.30
2019-01-03T00:57:27.072Z,2.37
2019-01-03T01:00:00.521Z,2.75
2019-01-03T01:02:36.442Z,1.70
2019-01-03T01:05:07.410Z,0.85
2019-01-03T01:07:42.945Z,1.35
2019-01-03T01:10:28.346Z,3.37
2019-01-03T01:13:14.693Z,3.95
2019-01-03T01:15:45.097Z,2.37
2019-01-03T01:18:31.124Z,8.13
2019-01-03T01:21:01.201Z,2.05
2019-01-03T01:23:47.440Z,0.80
2019-01-03T01:26:33.841Z,6.05
2019-01-03T01:29:13.002Z,0.93
2019-01-03T01:31:51.957Z,1.30
2019-01-03T01:34:25.046Z,2.25
2019-01-03T01:36:58.134Z,3.83
2019-01-03T01:39:33.928Z,1.70
2019-01-03T01:42:10.211Z,2.47
2019-01-03T01:44:49.304Z,1.77
2019-01-03T01:47:35.649Z,3.42
2019-01-03T01:50:07.514Z,1.50
2019-01-03T01:52:52.437Z,1.95
2019-01-03T01:55:25.219Z,3.70
2019-01-03T01:58:07.418Z,2.12
2019-01-03T02:00:37.498Z,2.92
2019-01-03T02:03:07.662Z,2.65
2019-01-03T02:05:53.822Z,2.77
2019-01-03T02:08:23.945Z,1.75
2019-01-03T02:11:10.022Z,1.12
2019-01-03T02:13:49.201Z,1.12
2019-01-03T02:16:21.970Z,6.33
2019-01-03T02:18:55.116Z,1.40
2019-01-03T02:21:25.190Z,1.87
2019-01-03T02:23:55.528Z,0.80
2019-01-03T02:26:42.050Z,1.00
2019-01-03T02:29:14.844Z,1.30
2019-01-03T02:32:00.930Z,5.08
2019-01-03T02:34:31.246Z,1.70
2019-01-03T02:37:04.038Z,3.33
2019-01-03T02:39:37.045Z,1.22
2019-01-03T02:42:07.361Z,0.90
2019-01-03T02:44:37.711Z,0.95
2019-01-03T02:47:25.910Z,1.45
2019-01-03T02:50:14.117Z,1.50
2019-01-03T02:52:47.005Z,1.02
2019-01-03T02:55:26.525Z,3.02
2019-01-03T02:58:00.146Z,4.30
2019-01-03T03:00:30.484Z,0.93
2019-01-03T03:03:03.023Z,0.70
2019-01-03T03:05:33.099Z,2.00
2019-01-03T03:08:18.017Z,1.17
2019-01-03T03:11:00.091Z,1.50
2019-01-03T03:13:47.969Z,2.17
2019-01-03T03:16:34.224Z,0.95
2019-01-03T03:19:07.249Z,2.87
2019-01-03T03:21:46.710Z,1.87
2019-01-03T03:24:19.810Z,1.85
2019-01-03T03:26:56.199Z,2.25
2019-01-03T03:29:43.146Z,5.42
2019-01-03T03:32:19.233Z,1.80
2019-01-03T03:35:05.532Z,3.00
2019-01-03T03:37:41.652Z,8.53
2019-01-03T03:40:12.136Z,1.12
2019-01-03T03:43:00.198Z,2.35
2019-01-03T03:45:33.249Z,0.72
2019-01-03T03:48:18.655Z,2.77
2019-01-03T03:50:58.235Z,4.10
2019-01-03T03:53:44.505Z,4.53
2019-01-03T03:56:29.375Z,2.95
2019-01-03T03:59:15.128Z,0.50
2019-01-03T04:01:45.209Z,3.00
2019-01-03T04:04:31.469Z,5.62
2019-01-03T04:07:16.638Z,1.22
2019-01-03T04:09:52.910Z,0.80
2019-01-03T04:12:25.790Z,1.55
2019-01-03T04:15:04.429Z,0.65
2019-01-03T04:17:40.120Z,0.60
2019-01-03T04:20:12.983Z,0.88
2019-01-03T04:22:54.899Z,0.93
2019-01-03T04:25:25.241Z,1.22
2019-01-03T04:28:10.234Z,0.60
2019-01-03T04:30:43.279Z,0.70
2019-01-03T04:33:27.940Z,1.57
2019-01-03T04:36:14.286Z,1.42
2019-01-03T04:39:00.406Z,1.70
2019-01-03T04:41:46.773Z,0.98
2019-01-03T04:44:17.097Z,1.55
2019-01-03T04:46:53.074Z,2.10
2019-01-03T04:49:25.999Z,0.80
2019-01-03T04:51:59.064Z,0.60
2019-01-03T04:54:32.104Z,1.55
2019-01-03T04:57:14.343Z,1.67
2019-01-03T04:59:53.206Z,2.40
2019-01-03T05:02:29.101Z,2.22
2019-01-03T05:05:05.147Z,1.50
2019-01-03T05:07:51.822Z,2.05
2019-01-03T05:10:24.313Z,0.78
2019-01-03T05:13:10.161Z,1.72
2019-01-03T05:15:56.590Z,1.90
2019-01-03T05:18:35.729Z,1.60
2019-01-03T05:21:08.379Z,4.50
2019-01-03T05:23:57.443Z,1.22
2019-01-03T05:26:28.622Z,1.50
2019-01-03T05:29:05.035Z,2.40
2019-01-03T05:31:35.123Z,1.35
2019-01-03T05:34:13.957Z,3.35
2019-01-03T05:36:46.951Z,1.90
2019-01-03T05:39:33.267Z,1.12
2019-01-03T05:42:19.321Z,0.90
2019-01-03T05:45:07.493Z,4.80
2019-01-03T05:47:37.571Z,1.30
2019-01-03T05:50:16.805Z,4.58
2019-01-03T05:52:49.790Z,1.27
2019-01-03T05:55:28.626Z,1.42
2019-01-03T05:57:58.956Z,3.35
2019-01-03T06:00:40.879Z,1.80
2019-01-03T06:03:26.989Z,0.80
2019-01-03T06:06:09.477Z,0.70
2019-01-03T06:08:46.781Z,2.85
2019-01-03T06:11:19.707Z,1.22
2019-01-03T06:14:07.656Z,1.60
2019-01-03T06:16:52.940Z,1.42
2019-01-03T06:19:34.567Z,1.00
2019-01-03T06:22:13.497Z,0.98
2019-01-03T06:24:59.649Z,1.00
2019-01-03T06:27:29.798Z,1.50
2019-01-03T06:30:16.098Z,1.27
2019-01-03T06:33:01.186Z,6.55
2019-01-03T06:35:47.621Z,2.65
2019-01-03T06:38:20.917Z,1.05
2019-01-03T06:40:51.245Z,2.15
2019-01-03T06:43:24.026Z,1.20
2019-01-03T06:46:09.813Z,2.75
2019-01-03T06:48:46.185Z,1.67
2019-01-03T06:51:16.257Z,1.92
2019-01-03T06:54:02.332Z,1.50
2019-01-03T06:56:48.761Z,4.30
2019-01-03T06:59:24.822Z,2.20
2019-01-03T07:02:00.778Z,1.67
2019-01-03T07:04:33.633Z,1.57
2019-01-03T07:07:15.948Z,0.90
2019-01-03T07:09:54.761Z,1.70
2019-01-03T07:12:30.817Z,1.50
2019-01-03T07:15:01.133Z,1.47
2019-01-03T07:17:34.185Z,2.75
2019-01-03T07:20:07.224Z,5.65
2019-01-03T07:22:43.390Z,1.55
2019-01-03T07:25:13.539Z,1.65
2019-01-03T07:27:43.589Z,1.95
2019-01-03T07:30:16.653Z,3.30
2019-01-03T07:33:02.681Z,3.10
2019-01-03T07:35:50.925Z,2.80
2019-01-03T07:38:35.899Z,5.20
2019-01-03T07:41:22.146Z,2.47
2019-01-03T07:43:52.230Z,2.47
2019-01-03T07:46:22.624Z,3.20
2019-01-03T07:49:01.390Z,1.40
2019-01-03T07:51:37.609Z,1.65
2019-01-03T07:54:19.485Z,1.98
2019-01-03T07:56:52.389Z,3.95
2019-01-03T07:59:28.121Z,2.22
2019-01-03T08:02:16.522Z,2.50
2019-01-03T08:04:46.610Z,2.50
2019-01-03T08:07:19.593Z,1.65
2019-01-03T08:10:01.738Z,1.25
2019-01-03T08:12:31.798Z,6.53
2019-01-03T08:15:04.826Z,2.00
2019-01-03T08:17:40.344Z,3.22
2019-01-03T08:20:10.490Z,4.60
2019-01-03T08:22:58.144Z,2.37
2019-01-03T08:25:28.216Z,4.80
2019-01-03T08:28:17.734Z,8.63
2019-01-03T08:30:53.647Z,8.75
2019-01-03T08:33:32.304Z,2.10
2019-01-03T08:36:19.965Z,1.77
2019-01-03T08:38:50.287Z,2.65
2019-01-03T08:41:35.793Z,4.17
2019-01-03T08:44:11.958Z,5.05
2019-01-03T08:46:42.283Z,3.65
2019-01-03T08:49:28.581Z,3.55
2019-01-03T08:52:01.641Z,2.55
2019-01-03T08:54:31.979Z,3.17
2019-01-03T08:57:05.122Z,1.50
2019-01-03T08:59:37.893Z,1.42
2019-01-03T09:02:23.349Z,5.53
2019-01-03T09:04:56.181Z,4.50
2019-01-03T09:07:32.291Z,1.85
2019-01-03T09:10:02.372Z,3.05
2019-01-03T09:12:35.666Z,2.05
2019-01-03T09:15:06.477Z,3.55
2019-01-03T09:17:52.637Z,3.33
2019-01-03T09:20:40.573Z,1.12
2019-01-03T09:23:13.477Z,6.78
2019-01-03T09:25:55.650Z,2.58
2019-01-03T09:28:31.473Z,1.90
2019-01-03T09:31:04.621Z,1.22
2019-01-03T09:33:46.563Z,1.50
2019-01-03T09:36:16.869Z,1.62
2019-01-03T09:38:49.685Z,2.55
2019-01-03T09:41:20.021Z,1.37
2019-01-03T09:43:53.051Z,4.55
2019-01-03T09:46:21.493Z,2.92
2019-01-03T09:48:49.912Z,3.10
2019-01-03T09:51:19.342Z,3.47
2019-01-03T09:53:47.761Z,3.83
2019-01-03T09:56:16.201Z,3.33
2019-01-03T09:58:44.617Z,2.83
2019-01-03T10:01:13.059Z,2.12
2019-01-03T10:03:42.324Z,2.37
2019-01-03T10:06:10.762Z,4.15
2019-01-03T10:08:39.434Z,3.77
2019-01-03T10:11:07.937Z,3.20
2019-01-03T10:13:36.673Z,4.28
2019-01-03T10:16:05.113Z,4.55
2019-01-03T10:18:33.530Z,1.30
2019-01-03T10:21:01.966Z,2.35
2019-01-03T10:23:30.650Z,4.15
2019-01-03T10:25:59.161Z,2.95
2019-01-03T10:28:27.573Z,2.35
2019-01-03T10:30:56.001Z,4.05
2019-01-03T10:33:24.417Z,1.45
2019-01-03T10:35:53.118Z,1.70
2019-01-03T10:38:21.537Z,1.62
2019-01-03T10:40:50.214Z,5.72
2019-01-03T10:43:18.891Z,1.55
2019-01-03T10:45:47.323Z,2.42
2019-01-03T10:48:15.737Z,3.47
2019-01-03T10:50:44.160Z,4.05
2019-01-03T10:53:12.574Z,1.72
2019-01-03T10:55:41.254Z,4.30
2019-01-03T10:58:09.665Z,2.55
2019-01-03T11:00:38.372Z,1.10
2019-01-03T11:03:07.054Z,3.92
2019-01-03T11:05:35.592Z,3.20
2019-01-03T11:08:04.246Z,1.00
2019-01-03T11:10:32.682Z,2.30
2019-01-03T11:13:01.094Z,2.33
2019-01-03T11:15:29.781Z,2.08
2019-01-03T11:17:58.442Z,5.87
2019-01-03T11:20:27.133Z,1.95
2019-01-03T11:22:55.546Z,4.40
2019-01-03T11:25:23.977Z,2.52
2019-01-03T11:27:52.440Z,5.70
2019-01-03T11:30:20.930Z,3.37
2019-01-03T11:32:49.606Z,3.15
2019-01-03T11:35:18.273Z,2.77
2019-01-03T11:37:46.704Z,1.25
2019-01-03T11:40:15.365Z,3.72
2019-01-03T11:42:43.800Z,1.65
2019-01-03T11:45:12.729Z,2.50
2019-01-03T11:47:41.166Z,2.47
2019-01-03T11:50:10.541Z,4.95
2019-01-03T11:52:39.225Z,1.30
2019-01-03T11:55:07.642Z,2.55
2019-01-03T11:57:36.330Z,7.00
2019-01-03T12:00:07.897Z,2.35
2019-01-03T12:02:36.573Z,2.35
2019-01-03T12:05:07.076Z,4.87
2019-01-03T12:07:35.753Z,3.12
2019-01-03T12:10:04.908Z,6.67
2019-01-03T12:12:33.589Z,3.42
2019-01-03T12:15:02.334Z,6.60
2019-01-03T12:17:31.022Z,5.70
2019-01-03T12:19:59.686Z,3.87
2019-01-03T12:22:28.117Z,8.65
2019-01-03T12:24:56.540Z,3.85
2019-01-03T12:27:25.217Z,5.28
2019-01-03T12:29:53.890Z,6.65
2019-01-03T12:32:22.779Z,4.40
2019-01-03T12:34:51.199Z,4.35
2019-01-03T12:37:19.879Z,3.20
2019-01-03T12:39:48.539Z,8.88
2019-01-03T12:42:16.965Z,7.30
2019-01-03T12:44:45.383Z,2.40
2019-01-03T12:47:14.890Z,3.92
2019-01-03T12:49:43.302Z,2.55
2019-01-03T12:52:11.733Z,3.40
2019-01-03T12:54:40.410Z,8.30
2019-01-03T12:57:08.838Z,6.40
2019-01-03T12:59:37.794Z,6.45
2019-01-03T13:02:06.649Z,6.60
2019-01-03T13:04:35.069Z,2.22
2019-01-03T13:07:03.501Z,2.17
2019-01-03T13:09:32.169Z,6.28
2019-01-03T13:12:00.692Z,3.45
2019-01-03T13:14:29.125Z,6.35
2019-01-03T13:16:57.529Z,3.52
2019-01-03T13:19:25.957Z,7.10
2019-01-03T13:21:54.377Z,5.10
2019-01-03T13:24:22.854Z,6.33
2019-01-03T13:26:51.533Z,5.30
2019-01-03T13:29:20.217Z,4.75
2019-01-03T13:31:48.894Z,2.00
2019-01-03T13:34:17.393Z,8.13
2019-01-03T13:36:45.825Z,3.15
2019-01-03T13:39:14.241Z,5.20
2019-01-03T13:41:42.678Z,7.20
2019-01-03T13:44:11.089Z,7.15
2019-01-03T13:46:39.781Z,4.37
2019-01-03T13:49:08.702Z,2.55
2019-01-03T13:51:37.125Z,7.70
2019-01-03T13:54:05.802Z,3.80
2019-01-03T13:56:34.234Z,6.78
2019-01-03T13:59:02.674Z,6.50
2019-01-03T14:01:31.370Z,5.22
2019-01-03T14:03:59.781Z,4.97
2019-01-03T14:06:29.761Z,2.92
2019-01-03T14:08:58.175Z,5.28
2019-01-03T14:11:26.609Z,8.23
2019-01-03T14:13:55.098Z,5.70
2019-01-03T14:16:23.599Z,7.30
2019-01-03T14:18:52.290Z,3.15
2019-01-03T14:21:20.720Z,5.30
2019-01-03T14:23:49.142Z,4.00
2019-01-03T14:26:17.573Z,8.45
2019-01-03T14:28:46.233Z,7.78
2019-01-03T14:31:14.666Z,3.20
2019-01-03T14:33:43.081Z,5.85
2019-01-03T14:36:11.510Z,6.28
2019-01-03T14:38:39.927Z,7.33
2019-01-03T14:41:08.664Z,4.30
2019-01-03T14:43:37.338Z,4.80
2019-01-03T14:46:05.771Z,3.40
2019-01-03T14:48:34.455Z,6.10
2019-01-03T14:51:03.133Z,4.35
2019-01-03T14:53:31.622Z,5.53
2019-01-03T14:56:00.313Z,5.40
2019-01-03T14:58:28.726Z,4.80
2019-01-03T15:00:57.391Z,7.45
2019-01-03T15:03:26.074Z,3.42
2019-01-03T15:05:54.486Z,3.67
2019-01-03T15:08:22.945Z,9.20
2019-01-03T15:10:51.631Z,4.83
2019-01-03T15:13:20.374Z,6.80
2019-01-03T15:15:49.130Z,3.67
2019-01-03T15:18:17.824Z,6.30
2019-01-03T15:20:46.509Z,5.45
2019-01-03T15:23:14.944Z,7.40
2019-01-03T15:25:43.621Z,6.78
2019-01-03T15:28:12.053Z,4.95
2019-01-03T15:30:40.717Z,4.50
2019-01-03T15:33:09.150Z,3.95
2019-01-03T15:35:37.814Z,8.18
2019-01-03T15:38:06.245Z,4.35
2019-01-03T15:40:34.678Z,10.15
2019-01-03T15:43:03.104Z,5.90
2019-01-03T15:45:31.521Z,4.90
2019-01-03T15:47:59.957Z,4.35
2019-01-03T15:50:28.400Z,6.12
2019-01-03T15:52:56.885Z,5.67
2019-01-03T15:55:25.302Z,6.30
2019-01-03T15:57:54.010Z,3.95
2019-01-03T16:00:22.425Z,3.35
2019-01-03T16:02:50.857Z,5.30
2019-01-03T16:05:19.277Z,10.45
2019-01-03T16:07:47.718Z,5.22
2019-01-03T16:10:16.132Z,5.40
2019-01-03T16:12:44.937Z,5.80
2019-01-03T16:15:13.417Z,6.35
2019-01-03T16:17:41.859Z,5.58
2019-01-03T16:20:10.277Z,8.98
2019-01-03T16:22:38.710Z,7.70
2019-01-03T16:25:07.203Z,13.50
2019-01-03T16:27:35.882Z,5.37
2019-01-03T16:30:06.790Z,5.40
2019-01-03T16:32:35.302Z,8.30
2019-01-03T16:35:04.058Z,11.65
2019-01-03T16:37:32.477Z,6.62
2019-01-03T16:40:01.031Z,9.38
2019-01-03T16:42:40.461Z,6.35
2019-01-03T16:45:11.090Z,8.28
2019-01-03T16:47:39.774Z,9.15
2019-01-03T16:50:13.733Z,6.12
2019-01-03T16:52:42.165Z,8.50
2019-01-03T16:55:10.896Z,7.28
2019-01-03T16:57:39.573Z,10.13
2019-01-03T17:00:10.781Z,6.97
2019-01-03T17:02:39.213Z,14.87
2019-01-03T17:05:07.765Z,7.12
2019-01-03T17:07:36.178Z,10.55
2019-01-03T17:10:11.122Z,8.38
2019-01-03T17:12:39.778Z,7.05
2019-01-03T17:15:08.692Z,7.95
2019-01-03T17:17:37.422Z,8.80
2019-01-03T17:20:08.897Z,7.95
2019-01-03T17:22:37.312Z,8.50
2019-01-03T17:25:08.705Z,8.40
2019-01-03T17:27:37.198Z,10.08
2019-01-03T17:30:08.235Z,6.15
2019-01-03T17:32:36.896Z,8.30
2019-01-03T17:35:08.166Z,8.45
2019-01-03T17:37:36.846Z,6.53
2019-01-03T17:40:08.281Z,6.17
2019-01-03T17:42:36.892Z,10.72
2019-01-03T17:45:08.061Z,6.83
2019-01-03T17:47:36.481Z,10.00
2019-01-03T17:50:08.566Z,5.22
2019-01-03T17:52:37.238Z,13.78
2019-01-03T17:55:07.681Z,11.05
2019-01-03T17:57:36.228Z,7.12
2019-01-03T18:00:08.173Z,8.48
2019-01-03T18:02:36.834Z,7.75
2019-01-03T18:05:05.433Z,6.72
2019-01-03T18:07:33.853Z,16.15
2019-01-03T18:10:02.621Z,7.55
2019-01-03T18:12:31.037Z,7.25
2019-01-03T18:14:59.477Z,11.93
2019-01-03T18:17:28.149Z,9.58
2019-01-03T18:19:56.834Z,5.25
2019-01-03T18:22:28.074Z,5.92
2019-01-03T18:24:56.803Z,6.75
2019-01-03T18:27:25.245Z,5.12
2019-01-03T18:29:53.909Z,6.00
2019-01-03T18:32:22.342Z,8.15
2019-01-03T18:34:51.050Z,11.18
2019-01-03T18:37:19.759Z,11.05
2019-01-03T18:39:48.192Z,8.25
2019-01-03T18:42:16.902Z,8.65
2019-01-03T18:44:45.586Z,9.13
2019-01-03T18:47:14.005Z,9.88
2019-01-03T18:49:42.437Z,7.97
2019-01-03T18:52:11.101Z,9.33
2019-01-03T18:54:39.547Z,6.83
2019-01-03T18:57:07.958Z,14.83
2019-01-03T18:59:36.390Z,5.67
2019-01-03T19:02:04.808Z,12.88
2019-01-03T19:04:33.498Z,10.63
2019-01-03T19:07:01.913Z,7.53
2019-01-03T19:09:30.335Z,10.48
2019-01-03T19:11:58.777Z,10.72
2019-01-03T19:14:27.459Z,12.90
2019-01-03T19:16:55.897Z,14.43
2019-01-03T19:19:24.593Z,12.37
2019-01-03T19:21:53.270Z,6.05
2019-01-03T19:24:21.681Z,9.25
2019-01-03T19:26:50.113Z,9.70
2019-01-03T19:29:18.777Z,16.55
2019-01-03T19:31:47.281Z,9.00
2019-01-03T19:34:15.942Z,8.93
2019-01-03T19:36:44.381Z,10.08
2019-01-03T19:39:12.797Z,12.75
2019-01-03T19:41:41.487Z,6.80
2019-01-03T19:44:10.153Z,7.60
2019-01-03T19:46:38.594Z,6.72
2019-01-03T19:49:07.005Z,9.18
2019-01-03T19:51:35.433Z,6.67
2019-01-03T19:54:04.198Z,17.05
2019-01-03T19:56:32.623Z,11.28
2019-01-03T19:59:01.054Z,12.20
2019-01-03T20:01:29.641Z,8.53
2019-01-03T20:03:58.069Z,9.48
2019-01-03T20:06:26.864Z,6.50
2019-01-03T20:08:55.322Z,10.32
2019-01-03T20:11:23.992Z,10.38
2019-01-03T20:13:52.669Z,5.65
2019-01-03T20:16:21.770Z,11.85
2019-01-03T20:18:50.204Z,14.28
2019-01-03T20:21:18.697Z,8.48
2019-01-03T20:23:47.467Z,12.73
2019-01-03T20:26:15.907Z,12.10
2019-01-03T20:28:44.590Z,6.90
2019-01-03T20:31:13.265Z,8.43
2019-01-03T20:33:42.236Z,10.00
2019-01-03T20:36:10.910Z,8.80
2019-01-03T20:38:39.337Z,9.18
2019-01-03T20:41:07.996Z,9.30
2019-01-03T20:43:39.374Z,15.28
2019-01-03T20:46:06.822Z,15.30
2019-01-03T20:48:35.510Z,11.50
2019-01-03T20:51:04.346Z,8.55
2019-01-03T20:53:32.789Z,11.43
2019-01-03T20:56:01.449Z,15.08
2019-01-03T20:58:29.879Z,7.03
2019-01-03T21:00:58.311Z,11.90
2019-01-03T21:03:26.973Z,9.68
2019-01-03T21:05:55.661Z,11.25
2019-01-03T21:08:24.357Z,9.25
2019-01-03T21:10:53.017Z,3.62
2019-01-03T21:13:21.446Z,7.15
2019-01-03T21:15:49.881Z,4.55
2019-01-03T21:18:18.303Z,10.18
2019-01-03T21:20:46.734Z,6.70
2019-01-03T21:23:15.161Z,6.50
2019-01-03T21:25:43.582Z,6.50
2019-01-03T21:28:12.008Z,14.35
2019-01-03T21:30:40.449Z,6.97
2019-01-03T21:33:09.109Z,5.37
2019-01-03T21:35:37.789Z,7.87
2019-01-03T21:38:06.473Z,6.00
2019-01-03T21:40:35.136Z,7.37
2019-01-03T21:43:03.834Z,9.40
2019-01-03T21:45:32.270Z,12.88
2019-01-03T21:48:00.757Z,5.83
2019-01-03T21:50:29.442Z,10.32
2019-01-03T21:52:57.874Z,8.50
2019-01-03T21:55:26.285Z,8.53
2019-01-03T21:57:54.717Z,5.15
2019-01-03T22:00:23.149Z,9.23
2019-01-03T22:02:51.816Z,9.05
2019-01-03T22:05:20.509Z,7.20
2019-01-03T22:07:49.169Z,6.92
2019-01-03T22:10:17.889Z,9.95
2019-01-03T22:12:46.373Z,7.65
2019-01-03T22:15:14.918Z,7.45
2019-01-03T22:17:43.346Z,7.42
2019-01-03T22:20:11.761Z,6.30
2019-01-03T22:22:40.450Z,9.13
2019-01-03T22:25:09.197Z,10.28
2019-01-03T22:27:37.617Z,8.20
2019-01-03T22:30:09.042Z,7.12
2019-01-03T22:32:37.452Z,10.20
2019-01-03T22:35:06.921Z,7.12
2019-01-03T22:37:35.618Z,8.83
2019-01-03T22:40:04.937Z,9.68
2019-01-03T22:42:33.701Z,7.40
2019-01-03T22:45:02.441Z,6.83
2019-01-03T22:47:30.864Z,8.10
2019-01-03T22:49:59.622Z,8.20
2019-01-03T22:52:28.293Z,11.12
2019-01-03T22:54:56.757Z,15.18
2019-01-03T22:57:25.433Z,11.08
2019-01-03T22:59:54.116Z,16.93
2019-01-03T23:02:22.549Z,8.28
2019-01-03T23:04:51.038Z,7.53
2019-01-03T23:07:19.469Z,10.80
2019-01-03T23:09:48.133Z,11.48
2019-01-03T23:12:16.571Z,9.80
2019-01-03T23:14:44.992Z,8.45
2019-01-03T23:17:13.505Z,8.85
2019-01-03T23:19:41.925Z,11.65
2019-01-03T23:22:10.379Z,10.23
2019-01-03T23:24:39.162Z,9.93
2019-01-03T23:27:07.608Z,8.63
2019-01-03T23:29:36.008Z,6.65
2019-01-03T23:32:04.781Z,6.55
2019-01-03T23:34:33.458Z,9.43
2019-01-03T23:37:01.969Z,13.50
2019-01-03T23:39:30.394Z,10.00
2019-01-03T23:41:58.825Z,14.60
2019-01-03T23:44:27.506Z,9.78
2019-01-03T23:46:55.945Z,10.88
2019-01-03T23:49:24.366Z,9.18
2019-01-03T23:51:52.806Z,10.23
2019-01-03T23:54:21.225Z,9.08
2019-01-03T23:56:49.913Z,9.78
2019-01-03T23:59:18.405Z,8.53
